Whale Point, California Weather observations

Data are for observation ending at time listed.
 Day   Time    Ave.   Ave.  Ave.  Vector   Max.   Stn.    Total    Solar   Ave.  
  of    of     Air    Rel.  Wind   Wind    Wind   Baro.  Precip.   Rad.    Soil  
Year   Day     Temp.  Hum.  Speed  Dir.    Gust   Pres.                    Temp. 
2015   (PST)    F      %     mph   deg.    mph     mb.     in.     W/m2     F   
------------------------------------------------------------------------------
 246   16:40   65.9    63    4.0   268     11.2   990.5    0.00     359    77.0
 246   16:50   64.2    67    4.9   300     12.5   990.2    0.00     322    77.1
 246   17:00   64.0    67    4.4   290     12.3   990.2    0.00     256    77.3
 246   17:10   64.7    65    5.0   292     11.4   990.2    0.00     206    77.4
 246   17:20   64.0    67    4.6   267     11.6   990.2    0.00     211    77.5
 246   17:30   63.6    68    4.6   230     13.2   989.8    0.00     176    77.6
 246   17:40   63.4    69    4.2   277     10.2   989.8    0.00     144    77.7
 246   17:50   62.9    70    3.4   310     10.0   989.8    0.00     111    77.8
 246   18:00   62.2    71    3.0   306      8.9   989.8    0.00      81    78.0
 246   18:10   62.2    71    2.2   263      7.2   989.5    0.00      53    78.0
 246   18:20   61.7    72    1.3   315      4.1   989.5    0.00      23    78.1
 246   18:30   60.6    74    1.1   127      2.5   989.5    0.00       8    78.2
 246   18:40   60.4    74    1.0   216      2.8   989.5    0.00       3    78.3
 246   18:50   60.0    75    1.5   248      4.8   989.5    0.00       1    78.3
 246   19:00   59.4    76    0.9   266      4.1   989.5    0.00       0    78.4
 246   19:10   59.1    77    1.4   171      4.5   989.5    0.00       0    78.4
 246   19:20   59.0    77    0.7   144      4.0   989.5    0.00       0    78.5
 246   19:30   58.7    78    0.9    27      1.6   989.8    0.00       0    78.5
 246   19:40   58.6    78    0.3    84      1.2   989.8    0.00       0    78.5
 246   19:50   58.2    78    0.5    99      1.9   989.8    0.00       0    78.5
 246   20:00   58.3    79    1.9   104      3.9   989.5    0.00       0    78.5
 246   20:10   58.3    79    1.8   116      3.7   989.8    0.00       0    78.5
 246   20:20   58.1    79    1.5   114      2.9   989.8    0.00       0    78.4
 246   20:30   57.9    79    1.6    96      2.9   989.8    0.00       0    78.4
 246   20:40   57.7    79    2.1   131      3.8   989.8    0.00       0    78.4
 246   20:50   57.8    80    2.9   138      4.3   989.8    0.00       0    78.3
 246   21:00   57.9    80    2.9   131      4.6   989.8    0.00       0    78.3
 246   21:10   57.8    80    1.8   100      4.2   989.8    0.00       0    78.2
 246   21:20   57.7    80    2.1   107      4.5   989.8    0.00       0    78.2
 246   21:30   57.7    80    1.7    99      4.2   989.8    0.00       0    78.1
 246   21:40   57.6    80    2.2   103      5.9   989.8    0.00       0    78.1
 246   21:50   57.4    80    2.6   111      4.5   989.8    0.00       0    78.0
 246   22:00   57.1    81    2.7   132      5.0   989.8    0.00       0    77.9
 246   22:10   57.2    80    2.7   126      5.3   989.8    0.00       0    77.8
 246   22:20   57.4    79    2.1   122      5.7   989.8    0.00       0    77.8
 246   22:30   57.1    80    1.2    45      3.9   989.8    0.00       0    77.7
 246   22:40   56.9    81    2.5    69      5.3   989.8    0.00       0    77.6
 246   22:50   57.2    81    3.7    74      8.1   989.8    0.00       0    77.5
 246   23:00   57.3    83    4.1    76      7.0   989.8    0.00       0    77.4
 246   23:10   57.2    83    3.4    89      6.0   989.8    0.00       0    77.3
 246   23:20   57.0    84    3.2   122      6.6   989.8    0.00       0    77.3
 246   23:30   57.0    84    3.1    98      6.3   990.2    0.00       0    77.2
 246   23:40   56.7    85    2.0    82      5.9   990.2    0.00       0    77.1
 246   23:50   56.5    86    2.8   100      5.6   990.2    0.00       0    77.0
 247    0:00   56.3    86    0.7     2      4.2   990.2    0.00       0    76.9
 247    0:10   56.0    87    0.8    35      2.6   990.2    0.00       0    76.8
 247    0:20   56.0    88    0.7    64      4.1   990.2    0.00       0    76.7
 247    0:30   55.9    87    1.7    96      4.8   990.2    0.00       0    76.6
 247    0:40   55.6    87    2.8    44      5.9   989.8    0.00       0    76.6
 247    0:50   55.8    87    6.3    33      8.7   989.8    0.00       0    76.4
 247    1:00   55.5    87    6.3    34      9.0   989.8    0.00       0    76.4
 247    1:10   55.5    87    7.3    24     13.1   989.8    0.00       0    76.3
 247    1:20   56.0    87    6.4     9     12.3   989.8    0.00       0    76.2
 247    1:30   55.9    86    5.9    13      9.3   989.8    0.00       0    76.1
 247    1:40   55.7    86    6.1    32     10.3   989.8    0.00       0    76.0
 247    1:50   55.6    86    5.8    35      8.2   989.8    0.00       0    75.9
 247    2:00   56.0    86    5.7    15     10.7   989.8    0.00       0    75.8
 247    2:10   56.2    86    5.7    23     12.3   990.2    0.00       0    75.7
 247    2:20   56.0    86    4.5    32      7.7   990.2    0.00       0    75.6
 247    2:30  99999.0   99999  99999.0   99999    99999.0   99999.0   99999.00   99999    99999.0
 247    2:40   55.8    87    1.2    36      2.6   990.2    0.00       0    75.4
 247    2:50   55.9    87    0.2   121      1.6   990.2    0.00       0    75.3
 247    3:00   55.9    87    1.4    55      3.4   990.2    0.00       0    75.3
 247    3:10   56.0    86    1.9    56      3.9   990.2    0.00       0    75.2
 247    3:20   55.9    86    1.2    65      2.3   990.2    0.00       0    75.1
 247    3:30   55.9    86    1.1   155      3.8   990.5    0.00       0    75.0
 247    3:40   56.0    86    0.1    89      1.2   990.5    0.00       0    74.9
 247    3:50   55.8    86    2.7    36      5.3   990.5    0.00       0    74.8
 247    4:00   55.4    85    4.1    44      5.8   990.5    0.00       0    74.8
 247    4:10   55.3    85    5.0    46      6.6   990.5    0.00       0    74.7
 247    4:20   55.2    85    4.6    43      6.5   990.5    0.00       0    74.6
 247    4:30   55.3    84    4.7    36      7.2   990.5    0.00       0    74.5
 247    4:40   55.3    85    4.9    33      6.6   990.5    0.00       0    74.4
 247    4:50   55.2    85    4.0    48      6.0   990.9    0.00       0    74.4
 247    5:00   55.1    85    4.0    51      5.7   990.9    0.00       0    74.3
 247    5:10   55.0    85    5.3    50      7.5   990.9    0.00       0    74.2
 247    5:20   55.0    85    4.4    61      7.7   990.9    0.00       0    74.2
 247    5:30   54.8    85    5.1    56      6.9   990.9    0.00       1    74.1
 247    5:40   54.4    85    5.7    61      8.5   990.9    0.00       3    74.0
 247    5:50   54.0    86    4.4    66      7.3   990.9    0.00       7    74.0
 247    6:00   54.2    86    3.6    69      6.5   991.2    0.00      11    73.9
 247    6:10   54.3    85    3.5    69      6.9   991.2    0.00      15    73.8
 247    6:20   54.2    83    3.5    71      7.0   991.2    0.00      19    73.8
 247    6:30   54.6    83    1.8    77      4.8   991.5    0.00      25    73.7
 247    6:40   55.0    83    2.6    65      4.7   991.5    0.00      31    73.6
 247    6:50   54.5    83    3.5    43      4.8   991.5    0.00      35    73.6
 247    7:00   54.9    83    2.8    46      4.5   991.9    0.00      39    73.5
 247    7:10   55.1    83    1.7    23      2.8   991.9    0.00      49    73.5
 247    7:20   55.7    83    0.3   335      1.5   991.9    0.00     120    73.4
 247    7:30   56.8    82    1.3   249      2.8   991.9    0.00     188    73.3
 247    7:40   57.5    82    1.9   228      3.1   992.2    0.00     160    73.3
 247    7:50   57.5    82    3.2   231      5.1   992.2    0.00     181    73.2
 247    8:00   57.7    81    2.8   214      4.5   992.2    0.00     197    73.1
 247    8:10   58.0    80    2.7   218      4.4   992.2    0.00     204    73.1
 247    8:20   58.1    80    3.0   218      5.5   992.2    0.00     228    73.0
 247    8:30   58.4    79    3.0   220      4.9   992.6    0.00     279    73.0
 247    8:40   58.5    79    3.9   233      5.5   992.6    0.00     384    72.9
 247    8:50   59.1    78    4.6   228      6.6   992.6    0.00     610    72.9
 247    9:00   59.2    77    4.4   223      8.2   992.6    0.00     695    72.8
 247    9:10   59.8    75    4.5   230      6.4   992.6    0.00     789    72.8
 247    9:20   59.6    77    4.4   217      7.0   992.6    0.00     758    72.8
 247    9:30   60.0    74    3.9   216      5.5   992.9    0.00     636    72.8
 247    9:40   59.5    75    3.7   209      6.7   992.9    0.00     598    72.8
 247    9:50   60.3    73    3.8   211      7.6   992.9    0.00     720    72.8
 247   10:00   59.9    74    4.6   216      6.4   992.9    0.00     635    72.8
 247   10:10   60.2    72    4.5   214      6.9   992.9    0.00     829    72.8
 247   10:20   60.5    70    5.1   208      7.6   992.9    0.00     860    72.8
 247   10:30   61.4    68    4.9   208      8.3   992.9    0.00     880    72.8
 247   10:40   61.4    68    4.7   212      6.9   992.9    0.00     893    72.8
 247   10:50   61.1    68    5.5   221      9.1   992.9    0.00     905    72.8
 247   11:00   60.7    70    5.3   223     11.1   992.9    0.00     918    72.8
 247   11:10   62.1    67    4.7   219     10.2   992.6    0.00     932    72.8
 247   11:20   62.2    66    4.6   222      8.8   992.6    0.00     942    72.8
 247   11:30   63.6    64    5.3   220      8.4   992.6    0.00     949    72.8
 247   11:40   62.7    65    5.3   226      9.2   992.6    0.00     954    72.8
 247   11:50   63.5    64    5.7   238     10.0   992.6    0.00     956    72.9
 247   12:00   63.8    63    4.9   265     10.3   992.6    0.00     955    72.9
 247   12:10   64.1    63    4.9   238      9.8   992.6    0.00     958    72.9
 247   12:20   64.3    62    6.0   270     10.4   992.6    0.00     958    73.0
 247   12:30   63.8    64    5.7   271     11.1   992.2    0.00     954    73.0
 247   12:40   64.0    63    6.4   255     11.5   992.2    0.00     947    73.1
 247   12:50   64.3    62    5.1   270     10.8   992.2    0.00     937    73.2
 247   13:00   65.2    61    5.7   246     10.4   992.2    0.00     928    73.3
 247   13:10   65.6    60    4.6   233     10.3   992.2    0.00     916    73.3
 247   13:20   65.8    59    5.2   226      9.6   992.2    0.00     902    73.5
 247   13:30   65.9    59    4.5   243      9.5   991.9    0.00     889    73.6
 247   13:40   65.3    59    4.9   248      9.6   991.9    0.00     874    73.7
 247   13:50   66.4    57    5.4   260     10.4   991.9    0.00     857    73.8
 247   14:00   66.0    58    5.2   248     10.5   991.9    0.00     836    74.0
 247   14:10   67.4    56    5.4   269     11.7   991.5    0.00     817    74.1
 247   14:20   66.5    58    5.9   270     11.2   991.5    0.00     799    74.3
 247   14:30   64.4    63    7.3   281     15.0   991.5    0.00     781    74.4
 247   14:40   65.2    61    5.0   273     11.1   991.5    0.00     721    74.6
 247   14:50   65.9    60    5.2   281     14.8   991.5    0.00     654    74.8
 247   15:00   63.5    66    5.8   285     15.4   991.5    0.00     626    74.9
 247   15:10   65.3    62    5.6   274     12.1   991.2    0.00     660    75.1
 247   15:20   65.2    61    6.0   280     14.8   991.5    0.00     644    75.3
 247   15:30   63.3    65    6.6   348     23.5   991.5    0.00     606    75.5
 247   15:40   64.8    62    6.0   281     13.7   991.2    0.00     573    75.6
 247   15:50   66.6    59    5.6   271     11.8   991.2    0.00     540    75.8
 247   16:00   64.3    63    7.2   330     19.4   991.2    0.00     503    76.0
 247   16:10   63.6    65    7.0   259     15.2   991.2    0.00     468    76.2
 247   16:20   63.3    66    4.6   300     11.0   991.2    0.00     432    76.3
 247   16:30   64.2    63    5.9   294     17.2   991.2    0.00     396    76.5

Return to Whale Point graphs page.


Western Regional Climate Center,wrcc@dri.edu